Willare, Western Australia

3:06 PM AWST on February 12, 2016 (GMT +0800)
Curtin | | Change Station
CLOSE
Current Station
Airport
Location: Curtin,
Elevation: 299 ft
Nearby Weather Stations

Elev 299 ft 17.58 °S, 123.83 °E | Updated 6 minutes ago

Overcast
Overcast
82 °F
Feels Like 87 °F
N
13
Wind Variable Wind from NNW

Today
High -- | Low -- °F
--% Chance of Precip.
Yesterday
High -- | Low -- °F
Precip. -- in
Pressure 29.68 in
Visibility -9999.0 miles
Clouds Scattered Clouds 1600 ft
Scattered Clouds 2400 ft
Overcast 6200 ft
Heat Index 87 °F
Dew Point 72 °F
Humidity 70%
Rainfall 0.00 in
Snow Depth Not available.
5:37 AM 6:20 PM
Waxing Crescent, 18% visible
SPECI YCIN 120700Z AUTO 33011KT 330V080 //// // SCT016 SCT024 OVC062 28/22 Q1005
Pressure 29.68 in
Visibility -9999.0 miles
Clouds Scattered Clouds 1600 ft
Scattered Clouds 2400 ft
Overcast 6200 ft
Heat Index 87 °F
Dew Point 72 °F
Humidity 70%
Rainfall 0.00 in
Snow Depth Not available.
5:37 AM 6:20 PM
Waxing Crescent, 18% visible
SPECI YCIN 120700Z AUTO 33011KT 330V080 //// // SCT016 SCT024 OVC062 28/22 Q1005

10-Day Weather Forecast

No radar image for this location.
×

Almanac

Astronomy

Feb. 12, 2016 Rise Set
Actual Time
Civil Twilight
Nautical Twilight
Astronomical Twilight
Moon
Length of Visible Light
Length of Day
Tomorrow will be .
, % of the Moon is Illuminated

Today's Extremes

Country Highs Country Lows

Community

WunderPhotos

Upload Photos

1,892,278 photos uploaded!

WunderBlog® & News

Nearby

Air Quality

  Air Quality AQ Index Pollutant
Not available.

Snow Depth

Station Depth Elevation

Earthquake Activity

City Distance Mag. Time & Date
Minimum magnitude displayed is 2.5.

Coastal Water Temperatures

Place Temperature

Stations

Nearby Weather Stations

Station Location Temp. Windchill Dew Point Humidity Wind Precip. Elev Updated Type